Date,TemperatureHighF,TemperatureAvgF,TemperatureLowF,DewpointHighF,DewpointAvgF,DewpointLowF,HumidityHigh,HumidityAvg,HumidityLow,PressureMaxIn,PressureMinIn,WindSpeedMaxMPH,WindSpeedAvgMPH,GustSpeedMaxMPH,PrecipitationSumIn
2013-3-1,29,26,24,23,21,17,92,82,73,30.40,30.24,13,6,17,0.01
2013-3-2,32,25,17,21,18,14,87,76,62,30.42,30.26,9,3,15,0.00
2013-3-3,34,27,17,24,20,14,89,76,61,30.25,29.96,13,7,22,0.00
2013-3-4,38,33,29,30,28,24,95,84,72,30.01,29.83,17,8,24,0.00
2013-3-5,32,29,26,31,25,20,97,84,74,30.36,30.00,20,9,34,0.03
2013-3-6,33,26,19,23,20,16,90,80,66,30.51,30.37,16,5,24,0.00
2013-3-7,35,24,15,26,20,13,94,84,69,30.45,30.32,11,5,18,0.00
2013-3-8,43,34,22,34,28,21,94,82,69,30.36,30.10,14,7,20,0.09
2013-3-9,43,39,37,42,38,34,98,95,86,30.08,29.68,12,6,21,0.40
2013-3-10,38,34,30,38,33,29,98,97,94,29.81,29.69,20,7,24,0.29
2013-3-11,29,26,22,28,24,19,97,91,85,30.03,29.80,19,9,27,0.04
2013-3-12,33,26,20,27,22,17,90,83,75,30.33,30.03,20,9,35,0.05
2013-3-13,35,25,16,22,18,13,87,76,54,30.54,30.34,13,4,20,0.06
2013-3-14,50,38,27,38,30,21,87,74,59,30.39,30.13,12,4,15,0.00
2013-3-15,61,43,31,48,38,30,95,84,58,30.12,29.74,12,3,15,0.00
2013-3-16,37,32,28,35,28,22,94,83,69,30.26,29.84,17,9,26,0.00
2013-3-17,39,31,22,29,24,18,85,75,62,30.26,29.89,15,9,26,0.00
2013-3-18,34,30,23,32,24,16,97,80,63,30.07,29.79,28,8,34,0.11
2013-3-19,41,27,17,23,15,11,78,62,42,30.31,30.08,14,6,23,0.01
2013-3-24,29,29,28,28,27,27,96,94,92,30.05,29.98,18,10,23,0.03
2013-3-25,34,30,26,27,25,23,96,83,66,30.34,30.05,19,9,24,0.04
2013-3-26,36,29,20,25,21,16,86,72,58,30.43,30.34,15,5,20,0.00
2013-3-27,45,35,23,29,25,20,91,69,49,30.41,30.31,9,2,14,0.00
2013-3-28,56,42,28,36,31,26,90,68,45,30.36,30.25,14,4,18,0.00
2013-3-29,62,48,33,38,34,31,91,63,35,30.31,30.16,12,4,19,0.00
2013-3-30,60,51,45,52,44,36,94,79,61,30.15,29.89,12,4,20,0.08
2013-3-31,53,43,32,43,34,24,97,73,33,30.15,29.92,23,8,29,0.01